sensor_id;sensor_type;location;lat;lon;timestamp;P1;durP1;ratioP1;P2;durP2;ratioP2
52248;SDS011;38541;48.130;8.378;2022-09-30T00:01:37;1.40;;;1.30;;
52248;SDS011;38541;48.130;8.378;2022-09-30T00:04:17;1.20;;;1.10;;
52248;SDS011;38541;48.130;8.378;2022-09-30T00:06:46;1.65;;;1.55;;
52248;SDS011;38541;48.130;8.378;2022-09-30T00:09:13;2.13;;;1.70;;
52248;SDS011;38541;48.130;8.378;2022-09-30T00:11:41;1.40;;;1.30;;
52248;SDS011;38541;48.130;8.378;2022-09-30T00:14:11;1.35;;;1.25;;
52248;SDS011;38541;48.130;8.378;2022-09-30T00:16:40;1.42;;;1.30;;
52248;SDS011;38541;48.130;8.378;2022-09-30T00:19:07;1.52;;;1.42;;
52248;SDS011;38541;48.130;8.378;2022-09-30T00:21:33;1.70;;;1.60;;
52248;SDS011;38541;48.130;8.378;2022-09-30T00:24:00;2.17;;;1.98;;
52248;SDS011;38541;48.130;8.378;2022-09-30T00:26:28;4.13;;;2.55;;
52248;SDS011;38541;48.130;8.378;2022-09-30T00:28:56;2.20;;;2.00;;
52248;SDS011;38541;48.130;8.378;2022-09-30T00:31:25;6.63;;;3.78;;
52248;SDS011;38541;48.130;8.378;2022-09-30T00:33:54;2.15;;;1.95;;
52248;SDS011;38541;48.130;8.378;2022-09-30T00:36:34;1.60;;;1.50;;
52248;SDS011;38541;48.130;8.378;2022-09-30T00:39:06;1.70;;;1.60;;
52248;SDS011;38541;48.130;8.378;2022-09-30T00:41:33;1.95;;;1.52;;
52248;SDS011;38541;48.130;8.378;2022-09-30T00:44:00;1.80;;;1.60;;
52248;SDS011;38541;48.130;8.378;2022-09-30T00:46:34;1.55;;;1.45;;
52248;SDS011;38541;48.130;8.378;2022-09-30T00:49:11;2.83;;;2.03;;
52248;SDS011;38541;48.130;8.378;2022-09-30T00:51:44;3.45;;;2.95;;
52248;SDS011;38541;48.130;8.378;2022-09-30T00:54:14;3.75;;;3.35;;
52248;SDS011;38541;48.130;8.378;2022-09-30T00:56:46;3.55;;;2.90;;
52248;SDS011;38541;48.130;8.378;2022-09-30T00:59:18;3.03;;;2.40;;
52248;SDS011;38541;48.130;8.378;2022-09-30T01:01:50;2.50;;;2.30;;
52248;SDS011;38541;48.130;8.378;2022-09-30T01:04:18;1.98;;;1.83;;
52248;SDS011;38541;48.130;8.378;2022-09-30T01:06:50;3.65;;;3.00;;
52248;SDS011;38541;48.130;8.378;2022-09-30T01:09:17;3.03;;;2.53;;
52248;SDS011;38541;48.130;8.378;2022-09-30T01:11:45;2.78;;;2.53;;
52248;SDS011;38541;48.130;8.378;2022-09-30T01:14:14;2.33;;;2.13;;
52248;SDS011;38541;48.130;8.378;2022-09-30T01:19:37;5.55;;;2.78;;
52248;SDS011;38541;48.130;8.378;2022-09-30T01:30:19;3.38;;;3.05;;
52248;SDS011;38541;48.130;8.378;2022-09-30T01:33:03;3.10;;;2.80;;
52248;SDS011;38541;48.130;8.378;2022-09-30T01:36:07;2.83;;;2.63;;
52248;SDS011;38541;48.130;8.378;2022-09-30T01:41:40;6.05;;;3.45;;
52248;SDS011;38541;48.130;8.378;2022-09-30T01:44:16;4.78;;;3.67;;
52248;SDS011;38541;48.130;8.378;2022-09-30T01:46:56;5.20;;;4.40;;
52248;SDS011;38541;48.130;8.378;2022-09-30T01:54:45;5.85;;;5.05;;
52248;SDS011;38541;48.130;8.378;2022-09-30T01:57:40;6.32;;;4.93;;
52248;SDS011;38541;48.130;8.378;2022-09-30T02:00:31;6.35;;;4.45;;
52248;SDS011;38541;48.130;8.378;2022-09-30T02:03:08;5.05;;;4.50;;
52248;SDS011;38541;48.130;8.378;2022-09-30T02:05:40;4.55;;;4.03;;
52248;SDS011;38541;48.130;8.378;2022-09-30T02:11:04;5.97;;;4.18;;
52248;SDS011;38541;48.130;8.378;2022-09-30T02:13:41;4.75;;;3.72;;
52248;SDS011;38541;48.130;8.378;2022-09-30T02:16:16;4.68;;;3.53;;
52248;SDS011;38541;48.130;8.378;2022-09-30T02:18:56;5.68;;;4.32;;
52248;SDS011;38541;48.130;8.378;2022-09-30T02:21:44;5.22;;;4.07;;
52248;SDS011;38541;48.130;8.378;2022-09-30T02:24:15;5.00;;;3.67;;
52248;SDS011;38541;48.130;8.378;2022-09-30T02:26:46;6.30;;;3.75;;
52248;SDS011;38541;48.130;8.378;2022-09-30T02:29:19;7.63;;;4.72;;
52248;SDS011;38541;48.130;8.378;2022-09-30T02:31:51;9.57;;;4.57;;
52248;SDS011;38541;48.130;8.378;2022-09-30T02:34:22;5.45;;;4.03;;
52248;SDS011;38541;48.130;8.378;2022-09-30T02:39:59;25.58;;;6.25;;
52248;SDS011;38541;48.130;8.378;2022-09-30T02:42:31;6.82;;;4.07;;
52248;SDS011;38541;48.130;8.378;2022-09-30T02:44:59;19.60;;;6.03;;
52248;SDS011;38541;48.130;8.378;2022-09-30T02:50:32;63.30;;;8.65;;
52248;SDS011;38541;48.130;8.378;2022-09-30T02:53:09;14.20;;;4.25;;
52248;SDS011;38541;48.130;8.378;2022-09-30T02:58:37;70.15;;;8.55;;
52248;SDS011;38541;48.130;8.378;2022-09-30T03:01:06;22.58;;;5.53;;
52248;SDS011;38541;48.130;8.378;2022-09-30T03:06:16;25.02;;;6.40;;
52248;SDS011;38541;48.130;8.378;2022-09-30T03:08:43;44.60;;;6.38;;
52248;SDS011;38541;48.130;8.378;2022-09-30T03:11:11;22.95;;;4.90;;
52248;SDS011;38541;48.130;8.378;2022-09-30T03:22:04;17.70;;;4.53;;
52248;SDS011;38541;48.130;8.378;2022-09-30T03:27:28;6.68;;;4.10;;
52248;SDS011;38541;48.130;8.378;2022-09-30T03:30:03;14.23;;;4.32;;
52248;SDS011;38541;48.130;8.378;2022-09-30T03:40:22;12.90;;;4.75;;
52248;SDS011;38541;48.130;8.378;2022-09-30T03:43:11;9.57;;;3.38;;
52248;SDS011;38541;48.130;8.378;2022-09-30T03:45:53;6.05;;;3.40;;
52248;SDS011;38541;48.130;8.378;2022-09-30T03:48:26;7.93;;;3.40;;
52248;SDS011;38541;48.130;8.378;2022-09-30T03:50:56;12.70;;;4.85;;
52248;SDS011;38541;48.130;8.378;2022-09-30T03:53:25;8.85;;;3.60;;
52248;SDS011;38541;48.130;8.378;2022-09-30T03:55:53;8.18;;;3.20;;
52248;SDS011;38541;48.130;8.378;2022-09-30T03:58:20;4.53;;;3.00;;
52248;SDS011;38541;48.130;8.378;2022-09-30T04:00:51;8.80;;;3.97;;
52248;SDS011;38541;48.130;8.378;2022-09-30T04:03:20;11.07;;;3.72;;
52248;SDS011;38541;48.130;8.378;2022-09-30T04:05:48;13.00;;;4.15;;
52248;SDS011;38541;48.130;8.378;2022-09-30T04:08:15;5.15;;;3.50;;
52248;SDS011;38541;48.130;8.378;2022-09-30T04:10:42;4.07;;;2.65;;
52248;SDS011;38541;48.130;8.378;2022-09-30T04:13:09;5.28;;;2.95;;
52248;SDS011;38541;48.130;8.378;2022-09-30T04:15:36;3.60;;;2.55;;
52248;SDS011;38541;48.130;8.378;2022-09-30T04:18:03;4.15;;;3.22;;
52248;SDS011;38541;48.130;8.378;2022-09-30T04:20:30;7.10;;;4.20;;
52248;SDS011;38541;48.130;8.378;2022-09-30T04:22:58;6.40;;;4.10;;
52248;SDS011;38541;48.130;8.378;2022-09-30T04:25:26;3.33;;;3.00;;
52248;SDS011;38541;48.130;8.378;2022-09-30T04:27:53;2.47;;;2.28;;
52248;SDS011;38541;48.130;8.378;2022-09-30T04:30:20;1.98;;;1.75;;
52248;SDS011;38541;48.130;8.378;2022-09-30T04:32:52;2.05;;;1.90;;
52248;SDS011;38541;48.130;8.378;2022-09-30T04:35:18;2.50;;;2.30;;
52248;SDS011;38541;48.130;8.378;2022-09-30T04:37:45;2.65;;;2.45;;
52248;SDS011;38541;48.130;8.378;2022-09-30T04:40:13;3.20;;;2.55;;
52248;SDS011;38541;48.130;8.378;2022-09-30T04:42:40;5.47;;;3.15;;
52248;SDS011;38541;48.130;8.378;2022-09-30T04:45:11;4.50;;;3.80;;
52248;SDS011;38541;48.130;8.378;2022-09-30T04:47:42;3.55;;;2.78;;
52248;SDS011;38541;48.130;8.378;2022-09-30T04:50:10;3.63;;;3.05;;
52248;SDS011;38541;48.130;8.378;2022-09-30T04:52:36;5.95;;;3.33;;
52248;SDS011;38541;48.130;8.378;2022-09-30T04:55:03;3.13;;;2.63;;
52248;SDS011;38541;48.130;8.378;2022-09-30T04:57:31;3.78;;;2.85;;
52248;SDS011;38541;48.130;8.378;2022-09-30T04:59:58;5.40;;;3.72;;
52248;SDS011;38541;48.130;8.378;2022-09-30T05:02:24;17.95;;;4.80;;
52248;SDS011;38541;48.130;8.378;2022-09-30T05:04:51;12.98;;;3.60;;
52248;SDS011;38541;48.130;8.378;2022-09-30T05:07:17;38.47;;;5.50;;
52248;SDS011;38541;48.130;8.378;2022-09-30T05:09:44;20.48;;;4.38;;
52248;SDS011;38541;48.130;8.378;2022-09-30T05:12:10;10.80;;;4.38;;
52248;SDS011;38541;48.130;8.378;2022-09-30T05:14:37;18.10;;;4.07;;
52248;SDS011;38541;48.130;8.378;2022-09-30T05:17:03;25.65;;;3.78;;
52248;SDS011;38541;48.130;8.378;2022-09-30T05:19:30;28.80;;;4.45;;
52248;SDS011;38541;48.130;8.378;2022-09-30T05:21:56;13.00;;;4.40;;
52248;SDS011;38541;48.130;8.378;2022-09-30T05:24:23;24.25;;;4.03;;
52248;SDS011;38541;48.130;8.378;2022-09-30T05:26:50;14.82;;;3.67;;
52248;SDS011;38541;48.130;8.378;2022-09-30T05:29:16;16.30;;;3.90;;
52248;SDS011;38541;48.130;8.378;2022-09-30T05:31:43;4.93;;;3.70;;
52248;SDS011;38541;48.130;8.378;2022-09-30T05:34:09;40.08;;;5.85;;
52248;SDS011;38541;48.130;8.378;2022-09-30T05:36:36;8.98;;;3.63;;
52248;SDS011;38541;48.130;8.378;2022-09-30T05:39:03;16.42;;;3.78;;
52248;SDS011;38541;48.130;8.378;2022-09-30T05:41:30;6.82;;;3.60;;
52248;SDS011;38541;48.130;8.378;2022-09-30T05:43:56;5.25;;;3.50;;
52248;SDS011;38541;48.130;8.378;2022-09-30T05:46:24;10.20;;;3.70;;
52248;SDS011;38541;48.130;8.378;2022-09-30T05:48:51;21.40;;;4.55;;
52248;SDS011;38541;48.130;8.378;2022-09-30T05:51:18;6.35;;;3.20;;
52248;SDS011;38541;48.130;8.378;2022-09-30T05:53:45;6.70;;;4.00;;
52248;SDS011;38541;48.130;8.378;2022-09-30T05:56:12;6.80;;;4.25;;
52248;SDS011;38541;48.130;8.378;2022-09-30T05:58:39;10.20;;;5.10;;
52248;SDS011;38541;48.130;8.378;2022-09-30T06:01:08;8.63;;;4.60;;
52248;SDS011;38541;48.130;8.378;2022-09-30T06:03:40;7.55;;;4.25;;
52248;SDS011;38541;48.130;8.378;2022-09-30T06:06:08;12.98;;;5.55;;
52248;SDS011;38541;48.130;8.378;2022-09-30T06:08:35;13.23;;;5.35;;
52248;SDS011;38541;48.130;8.378;2022-09-30T06:11:06;7.25;;;4.80;;
52248;SDS011;38541;48.130;8.378;2022-09-30T06:13:37;9.30;;;5.38;;
52248;SDS011;38541;48.130;8.378;2022-09-30T06:16:05;7.97;;;4.40;;
52248;SDS011;38541;48.130;8.378;2022-09-30T06:18:32;8.57;;;4.75;;
52248;SDS011;38541;48.130;8.378;2022-09-30T06:21:00;8.57;;;4.82;;
52248;SDS011;38541;48.130;8.378;2022-09-30T06:23:29;10.80;;;5.38;;
52248;SDS011;38541;48.130;8.378;2022-09-30T06:25:57;5.63;;;4.45;;
52248;SDS011;38541;48.130;8.378;2022-09-30T06:28:23;7.45;;;4.18;;
52248;SDS011;38541;48.130;8.378;2022-09-30T06:30:50;6.28;;;4.03;;
52248;SDS011;38541;48.130;8.378;2022-09-30T06:33:16;5.22;;;4.22;;
52248;SDS011;38541;48.130;8.378;2022-09-30T06:35:43;9.98;;;4.72;;
52248;SDS011;38541;48.130;8.378;2022-09-30T06:38:11;4.88;;;4.07;;
52248;SDS011;38541;48.130;8.378;2022-09-30T06:40:38;5.80;;;4.10;;
52248;SDS011;38541;48.130;8.378;2022-09-30T06:43:04;6.65;;;4.57;;
52248;SDS011;38541;48.130;8.378;2022-09-30T06:45:31;6.05;;;4.53;;
52248;SDS011;38541;48.130;8.378;2022-09-30T06:48:02;6.63;;;4.47;;
52248;SDS011;38541;48.130;8.378;2022-09-30T06:50:30;5.30;;;4.00;;
52248;SDS011;38541;48.130;8.378;2022-09-30T06:52:58;4.93;;;3.85;;
52248;SDS011;38541;48.130;8.378;2022-09-30T06:55:27;4.20;;;3.78;;
52248;SDS011;38541;48.130;8.378;2022-09-30T06:57:54;5.53;;;4.05;;
52248;SDS011;38541;48.130;8.378;2022-09-30T07:00:22;4.55;;;4.00;;
52248;SDS011;38541;48.130;8.378;2022-09-30T07:02:52;4.45;;;3.97;;
52248;SDS011;38541;48.130;8.378;2022-09-30T07:05:20;4.88;;;3.65;;
52248;SDS011;38541;48.130;8.378;2022-09-30T07:07:46;12.18;;;4.65;;
52248;SDS011;38541;48.130;8.378;2022-09-30T07:10:14;5.68;;;4.40;;
52248;SDS011;38541;48.130;8.378;2022-09-30T07:12:40;6.53;;;4.07;;
52248;SDS011;38541;48.130;8.378;2022-09-30T07:15:07;4.28;;;3.67;;
52248;SDS011;38541;48.130;8.378;2022-09-30T07:17:38;4.63;;;3.75;;
52248;SDS011;38541;48.130;8.378;2022-09-30T07:20:06;4.07;;;3.63;;
52248;SDS011;38541;48.130;8.378;2022-09-30T07:22:33;4.15;;;3.75;;
52248;SDS011;38541;48.130;8.378;2022-09-30T07:25:00;5.70;;;4.50;;
52248;SDS011;38541;48.130;8.378;2022-09-30T07:27:30;5.38;;;4.88;;
52248;SDS011;38541;48.130;8.378;2022-09-30T07:29:58;5.28;;;4.10;;
52248;SDS011;38541;48.130;8.378;2022-09-30T07:32:45;8.02;;;5.28;;
52248;SDS011;38541;48.130;8.378;2022-09-30T07:35:12;6.50;;;4.93;;
52248;SDS011;38541;48.130;8.378;2022-09-30T07:37:39;6.72;;;4.03;;
52248;SDS011;38541;48.130;8.378;2022-09-30T07:40:06;5.70;;;4.38;;
52248;SDS011;38541;48.130;8.378;2022-09-30T07:42:35;8.40;;;5.22;;
52248;SDS011;38541;48.130;8.378;2022-09-30T07:45:04;6.32;;;4.70;;
52248;SDS011;38541;48.130;8.378;2022-09-30T07:47:31;5.70;;;4.35;;
52248;SDS011;38541;48.130;8.378;2022-09-30T07:49:57;4.95;;;4.07;;
52248;SDS011;38541;48.130;8.378;2022-09-30T07:52:24;5.65;;;4.40;;
52248;SDS011;38541;48.130;8.378;2022-09-30T07:54:51;6.32;;;4.72;;
52248;SDS011;38541;48.130;8.378;2022-09-30T07:57:17;5.43;;;3.95;;
52248;SDS011;38541;48.130;8.378;2022-09-30T07:59:44;6.97;;;4.80;;
52248;SDS011;38541;48.130;8.378;2022-09-30T08:02:14;4.88;;;4.18;;
52248;SDS011;38541;48.130;8.378;2022-09-30T08:04:42;6.13;;;4.35;;
52248;SDS011;38541;48.130;8.378;2022-09-30T08:07:11;5.50;;;4.13;;
52248;SDS011;38541;48.130;8.378;2022-09-30T08:09:39;5.88;;;4.60;;
52248;SDS011;38541;48.130;8.378;2022-09-30T08:12:05;5.25;;;4.50;;
52248;SDS011;38541;48.130;8.378;2022-09-30T08:14:32;5.40;;;4.40;;
52248;SDS011;38541;48.130;8.378;2022-09-30T08:16:58;6.45;;;4.57;;
52248;SDS011;38541;48.130;8.378;2022-09-30T08:19:26;8.45;;;5.07;;
52248;SDS011;38541;48.130;8.378;2022-09-30T08:21:55;6.32;;;5.10;;
52248;SDS011;38541;48.130;8.378;2022-09-30T08:24:22;5.53;;;4.55;;
52248;SDS011;38541;48.130;8.378;2022-09-30T08:26:50;5.40;;;3.78;;
52248;SDS011;38541;48.130;8.378;2022-09-30T08:29:17;5.03;;;4.45;;
52248;SDS011;38541;48.130;8.378;2022-09-30T08:32:01;6.32;;;5.15;;
52248;SDS011;38541;48.130;8.378;2022-09-30T08:34:27;8.70;;;5.40;;
52248;SDS011;38541;48.130;8.378;2022-09-30T08:36:59;6.72;;;5.38;;
52248;SDS011;38541;48.130;8.378;2022-09-30T08:39:32;6.20;;;4.95;;
52248;SDS011;38541;48.130;8.378;2022-09-30T08:42:08;8.60;;;5.60;;
52248;SDS011;38541;48.130;8.378;2022-09-30T08:47:52;5.32;;;4.35;;
52248;SDS011;38541;48.130;8.378;2022-09-30T08:53:21;5.60;;;4.30;;
52248;SDS011;38541;48.130;8.378;2022-09-30T08:55:55;6.57;;;4.35;;
52248;SDS011;38541;48.130;8.378;2022-09-30T08:58:28;6.63;;;4.63;;
52248;SDS011;38541;48.130;8.378;2022-09-30T09:03:57;5.18;;;4.10;;
52248;SDS011;38541;48.130;8.378;2022-09-30T09:06:27;4.57;;;3.78;;
52248;SDS011;38541;48.130;8.378;2022-09-30T09:12:51;7.93;;;4.00;;
52248;SDS011;38541;48.130;8.378;2022-09-30T09:15:01;4.30;;;3.70;;
52248;SDS011;38541;48.130;8.378;2022-09-30T09:17:52;4.22;;;3.65;;
52248;SDS011;38541;48.130;8.378;2022-09-30T09:20:54;3.60;;;3.25;;
52248;SDS011;38541;48.130;8.378;2022-09-30T09:23:23;3.88;;;3.50;;
52248;SDS011;38541;48.130;8.378;2022-09-30T09:25:51;4.55;;;3.78;;
52248;SDS011;38541;48.130;8.378;2022-09-30T09:30:54;4.20;;;3.72;;
52248;SDS011;38541;48.130;8.378;2022-09-30T09:33:25;4.60;;;3.58;;
52248;SDS011;38541;48.130;8.378;2022-09-30T09:39:10;6.15;;;3.20;;
52248;SDS011;38541;48.130;8.378;2022-09-30T09:41:42;4.15;;;3.40;;
52248;SDS011;38541;48.130;8.378;2022-09-30T09:44:22;5.30;;;3.35;;
52248;SDS011;38541;48.130;8.378;2022-09-30T09:47:00;5.63;;;3.42;;
52248;SDS011;38541;48.130;8.378;2022-09-30T09:49:31;4.43;;;3.60;;
52248;SDS011;38541;48.130;8.378;2022-09-30T09:54:47;5.15;;;3.33;;
52248;SDS011;38541;48.130;8.378;2022-09-30T09:57:18;3.80;;;3.40;;
52248;SDS011;38541;48.130;8.378;2022-09-30T10:02:31;7.88;;;3.45;;
52248;SDS011;38541;48.130;8.378;2022-09-30T10:04:58;3.45;;;3.15;;
52248;SDS011;38541;48.130;8.378;2022-09-30T10:07:29;4.38;;;3.78;;
52248;SDS011;38541;48.130;8.378;2022-09-30T10:10:05;4.80;;;3.35;;
52248;SDS011;38541;48.130;8.378;2022-09-30T10:12:37;3.70;;;3.15;;
52248;SDS011;38541;48.130;8.378;2022-09-30T10:17:49;4.97;;;4.10;;
52248;SDS011;38541;48.130;8.378;2022-09-30T10:20:22;5.15;;;3.72;;
52248;SDS011;38541;48.130;8.378;2022-09-30T10:22:59;3.70;;;3.30;;
52248;SDS011;38541;48.130;8.378;2022-09-30T10:25:27;3.75;;;2.90;;
52248;SDS011;38541;48.130;8.378;2022-09-30T10:27:58;6.28;;;3.22;;
52248;SDS011;38541;48.130;8.378;2022-09-30T10:30:34;5.95;;;3.60;;
52248;SDS011;38541;48.130;8.378;2022-09-30T10:33:13;8.20;;;3.58;;
52248;SDS011;38541;48.130;8.378;2022-09-30T10:38:22;6.90;;;3.30;;
52248;SDS011;38541;48.130;8.378;2022-09-30T10:40:51;4.63;;;3.05;;
52248;SDS011;38541;48.130;8.378;2022-09-30T10:43:22;2.75;;;2.55;;
52248;SDS011;38541;48.130;8.378;2022-09-30T10:45:54;5.47;;;2.67;;
52248;SDS011;38541;48.130;8.378;2022-09-30T10:48:41;3.13;;;2.90;;
52248;SDS011;38541;48.130;8.378;2022-09-30T10:51:22;2.83;;;2.50;;
52248;SDS011;38541;48.130;8.378;2022-09-30T10:53:51;2.95;;;2.60;;
52248;SDS011;38541;48.130;8.378;2022-09-30T10:56:32;9.60;;;2.33;;
52248;SDS011;38541;48.130;8.378;2022-09-30T10:59:11;10.98;;;3.42;;
52248;SDS011;38541;48.130;8.378;2022-09-30T11:05:48;3.58;;;2.00;;
52248;SDS011;38541;48.130;8.378;2022-09-30T11:13:47;1.60;;;1.50;;
52248;SDS011;38541;48.130;8.378;2022-09-30T11:21:45;2.58;;;1.70;;
52248;SDS011;38541;48.130;8.378;2022-09-30T11:24:35;1.88;;;1.73;;
52248;SDS011;38541;48.130;8.378;2022-09-30T11:43:56;1.95;;;1.73;;
52248;SDS011;38541;48.130;8.378;2022-09-30T11:57:25;1.70;;;1.33;;
52248;SDS011;38541;48.130;8.378;2022-09-30T12:00:03;9.90;;;1.75;;
52248;SDS011;38541;48.130;8.378;2022-09-30T12:02:46;1.33;;;1.23;;
52248;SDS011;38541;48.130;8.378;2022-09-30T12:07:51;7.10;;;1.80;;
52248;SDS011;38541;48.130;8.378;2022-09-30T12:10:27;1.98;;;0.98;;
52248;SDS011;38541;48.130;8.378;2022-09-30T12:13:00;0.90;;;0.90;;
52248;SDS011;38541;48.130;8.378;2022-09-30T12:15:29;2.05;;;1.20;;
52248;SDS011;38541;48.130;8.378;2022-09-30T12:18:04;10.00;;;2.13;;
52248;SDS011;38541;48.130;8.378;2022-09-30T12:20:45;2.75;;;1.30;;
52248;SDS011;38541;48.130;8.378;2022-09-30T12:25:51;2.40;;;1.38;;
52248;SDS011;38541;48.130;8.378;2022-09-30T12:28:33;1.13;;;0.82;;
52248;SDS011;38541;48.130;8.378;2022-09-30T12:31:39;2.58;;;1.20;;
52248;SDS011;38541;48.130;8.378;2022-09-30T12:37:31;0.80;;;0.80;;
52248;SDS011;38541;48.130;8.378;2022-09-30T12:40:18;3.17;;;1.00;;
52248;SDS011;38541;48.130;8.378;2022-09-30T12:43:03;0.98;;;0.95;;
52248;SDS011;38541;48.130;8.378;2022-09-30T12:48:32;1.00;;;1.00;;
52248;SDS011;38541;48.130;8.378;2022-09-30T12:51:09;1.02;;;0.98;;
52248;SDS011;38541;48.130;8.378;2022-09-30T12:53:48;1.10;;;1.10;;
52248;SDS011;38541;48.130;8.378;2022-09-30T12:56:18;2.53;;;0.90;;
52248;SDS011;38541;48.130;8.378;2022-09-30T12:58:46;0.80;;;0.80;;
52248;SDS011;38541;48.130;8.378;2022-09-30T13:01:17;3.28;;;1.10;;
52248;SDS011;38541;48.130;8.378;2022-09-30T13:06:22;1.20;;;0.90;;
52248;SDS011;38541;48.130;8.378;2022-09-30T13:09:04;2.13;;;0.93;;
52248;SDS011;38541;48.130;8.378;2022-09-30T13:11:43;2.08;;;0.90;;
52248;SDS011;38541;48.130;8.378;2022-09-30T13:14:17;1.02;;;0.90;;
52248;SDS011;38541;48.130;8.378;2022-09-30T13:28:08;1.00;;;1.00;;
52248;SDS011;38541;48.130;8.378;2022-09-30T13:30:34;3.20;;;1.15;;
52248;SDS011;38541;48.130;8.378;2022-09-30T13:40:41;0.80;;;0.80;;
52248;SDS011;38541;48.130;8.378;2022-09-30T13:43:31;1.52;;;0.90;;
52248;SDS011;38541;48.130;8.378;2022-09-30T13:48:46;1.30;;;1.20;;
52248;SDS011;38541;48.130;8.378;2022-09-30T13:51:17;1.48;;;1.00;;
52248;SDS011;38541;48.130;8.378;2022-09-30T13:53:50;1.00;;;0.93;;
52248;SDS011;38541;48.130;8.378;2022-09-30T13:56:24;1.13;;;1.00;;
52248;SDS011;38541;48.130;8.378;2022-09-30T13:59:11;1.63;;;1.52;;
52248;SDS011;38541;48.130;8.378;2022-09-30T14:01:53;0.90;;;0.90;;
52248;SDS011;38541;48.130;8.378;2022-09-30T14:19:02;6.07;;;2.85;;
52248;SDS011;38541;48.130;8.378;2022-09-30T14:21:54;1.65;;;1.17;;
52248;SDS011;38541;48.130;8.378;2022-09-30T14:24:26;1.33;;;1.10;;
52248;SDS011;38541;48.130;8.378;2022-09-30T14:30:02;2.67;;;1.50;;
52248;SDS011;38541;48.130;8.378;2022-09-30T14:32:53;1.27;;;1.20;;
52248;SDS011;38541;48.130;8.378;2022-09-30T14:35:25;3.03;;;1.83;;
52248;SDS011;38541;48.130;8.378;2022-09-30T14:37:58;2.45;;;1.95;;
52248;SDS011;38541;48.130;8.378;2022-09-30T14:40:51;3.42;;;2.10;;
52248;SDS011;38541;48.130;8.378;2022-09-30T14:43:19;7.93;;;2.00;;
52248;SDS011;38541;48.130;8.378;2022-09-30T14:45:50;10.20;;;1.80;;
52248;SDS011;38541;48.130;8.378;2022-09-30T14:48:28;1.30;;;1.20;;
52248;SDS011;38541;48.130;8.378;2022-09-30T14:51:02;1.90;;;1.67;;
52248;SDS011;38541;48.130;8.378;2022-09-30T14:53:33;1.33;;;1.25;;
52248;SDS011;38541;48.130;8.378;2022-09-30T14:56:01;2.50;;;1.90;;
52248;SDS011;38541;48.130;8.378;2022-09-30T14:58:39;2.35;;;2.15;;
52248;SDS011;38541;48.130;8.378;2022-09-30T15:01:14;3.72;;;2.13;;
52248;SDS011;38541;48.130;8.378;2022-09-30T15:03:43;2.28;;;2.08;;
52248;SDS011;38541;48.130;8.378;2022-09-30T15:06:16;1.90;;;1.80;;
52248;SDS011;38541;48.130;8.378;2022-09-30T15:08:44;1.70;;;1.60;;
52248;SDS011;38541;48.130;8.378;2022-09-30T15:11:19;3.03;;;2.70;;
52248;SDS011;38541;48.130;8.378;2022-09-30T15:13:47;2.10;;;1.90;;
52248;SDS011;38541;48.130;8.378;2022-09-30T15:16:21;3.63;;;3.38;;
52248;SDS011;38541;48.130;8.378;2022-09-30T15:18:52;2.03;;;1.92;;
52248;SDS011;38541;48.130;8.378;2022-09-30T15:21:19;1.90;;;1.80;;
52248;SDS011;38541;48.130;8.378;2022-09-30T15:23:48;1.88;;;1.77;;
52248;SDS011;38541;48.130;8.378;2022-09-30T15:26:18;3.10;;;1.85;;
52248;SDS011;38541;48.130;8.378;2022-09-30T15:28:47;2.63;;;2.42;;
52248;SDS011;38541;48.130;8.378;2022-09-30T15:31:27;2.53;;;2.33;;
52248;SDS011;38541;48.130;8.378;2022-09-30T15:34:04;4.22;;;2.40;;
52248;SDS011;38541;48.130;8.378;2022-09-30T15:36:33;2.15;;;1.95;;
52248;SDS011;38541;48.130;8.378;2022-09-30T15:39:01;2.05;;;1.92;;
52248;SDS011;38541;48.130;8.378;2022-09-30T15:41:29;1.80;;;1.70;;
52248;SDS011;38541;48.130;8.378;2022-09-30T15:44:03;3.75;;;2.97;;
52248;SDS011;38541;48.130;8.378;2022-09-30T15:46:38;3.33;;;2.80;;
52248;SDS011;38541;48.130;8.378;2022-09-30T15:49:28;3.03;;;2.72;;
52248;SDS011;38541;48.130;8.378;2022-09-30T15:52:18;2.85;;;1.80;;
52248;SDS011;38541;48.130;8.378;2022-09-30T15:54:53;1.75;;;1.65;;
52248;SDS011;38541;48.130;8.378;2022-09-30T15:57:38;1.98;;;1.40;;
52248;SDS011;38541;48.130;8.378;2022-09-30T16:00:29;2.08;;;1.40;;
52248;SDS011;38541;48.130;8.378;2022-09-30T16:03:07;2.70;;;1.67;;
52248;SDS011;38541;48.130;8.378;2022-09-30T16:05:44;1.75;;;1.65;;
52248;SDS011;38541;48.130;8.378;2022-09-30T16:08:27;2.60;;;1.80;;
52248;SDS011;38541;48.130;8.378;2022-09-30T16:10:57;3.97;;;1.85;;
52248;SDS011;38541;48.130;8.378;2022-09-30T16:13:25;2.72;;;1.70;;
52248;SDS011;38541;48.130;8.378;2022-09-30T16:15:55;1.55;;;1.45;;
52248;SDS011;38541;48.130;8.378;2022-09-30T16:18:28;1.23;;;1.17;;
52248;SDS011;38541;48.130;8.378;2022-09-30T16:21:03;2.40;;;1.40;;
52248;SDS011;38541;48.130;8.378;2022-09-30T16:23:34;1.38;;;1.20;;
52248;SDS011;38541;48.130;8.378;2022-09-30T16:26:11;4.57;;;2.20;;
52248;SDS011;38541;48.130;8.378;2022-09-30T16:28:43;3.58;;;2.40;;
52248;SDS011;38541;48.130;8.378;2022-09-30T16:31:09;5.28;;;3.25;;
52248;SDS011;38541;48.130;8.378;2022-09-30T16:33:38;2.70;;;1.70;;
52248;SDS011;38541;48.130;8.378;2022-09-30T16:36:07;3.08;;;1.42;;
52248;SDS011;38541;48.130;8.378;2022-09-30T16:38:35;1.45;;;1.20;;
52248;SDS011;38541;48.130;8.378;2022-09-30T16:41:02;2.28;;;1.60;;
52248;SDS011;38541;48.130;8.378;2022-09-30T16:43:29;3.42;;;1.95;;
52248;SDS011;38541;48.130;8.378;2022-09-30T16:45:57;1.70;;;1.50;;
52248;SDS011;38541;48.130;8.378;2022-09-30T16:48:25;1.88;;;1.10;;
52248;SDS011;38541;48.130;8.378;2022-09-30T16:50:53;1.30;;;1.20;;
52248;SDS011;38541;48.130;8.378;2022-09-30T16:53:33;1.27;;;1.17;;
52248;SDS011;38541;48.130;8.378;2022-09-30T16:56:00;3.17;;;1.10;;
52248;SDS011;38541;48.130;8.378;2022-09-30T16:58:26;1.70;;;1.60;;
52248;SDS011;38541;48.130;8.378;2022-09-30T17:00:53;2.47;;;2.20;;
52248;SDS011;38541;48.130;8.378;2022-09-30T17:03:20;2.83;;;2.00;;
52248;SDS011;38541;48.130;8.378;2022-09-30T17:05:47;3.80;;;1.90;;
52248;SDS011;38541;48.130;8.378;2022-09-30T17:08:20;1.65;;;1.55;;
52248;SDS011;38541;48.130;8.378;2022-09-30T17:10:48;1.77;;;1.50;;
52248;SDS011;38541;48.130;8.378;2022-09-30T17:13:18;2.65;;;1.35;;
52248;SDS011;38541;48.130;8.378;2022-09-30T17:15:48;1.50;;;1.30;;
52248;SDS011;38541;48.130;8.378;2022-09-30T17:18:16;1.60;;;1.50;;
52248;SDS011;38541;48.130;8.378;2022-09-30T17:20:44;1.50;;;1.40;;
52248;SDS011;38541;48.130;8.378;2022-09-30T17:23:21;2.08;;;1.73;;
52248;SDS011;38541;48.130;8.378;2022-09-30T17:25:49;3.00;;;1.80;;
52248;SDS011;38541;48.130;8.378;2022-09-30T17:28:16;2.22;;;1.50;;
52248;SDS011;38541;48.130;8.378;2022-09-30T17:30:43;3.42;;;1.63;;
52248;SDS011;38541;48.130;8.378;2022-09-30T17:33:12;1.55;;;1.42;;
52248;SDS011;38541;48.130;8.378;2022-09-30T17:35:40;2.50;;;2.17;;
52248;SDS011;38541;48.130;8.378;2022-09-30T17:38:07;4.82;;;3.00;;
52248;SDS011;38541;48.130;8.378;2022-09-30T17:40:35;8.43;;;4.03;;
52248;SDS011;38541;48.130;8.378;2022-09-30T17:43:20;2.50;;;2.22;;
52248;SDS011;38541;48.130;8.378;2022-09-30T17:45:47;1.40;;;1.30;;
52248;SDS011;38541;48.130;8.378;2022-09-30T17:48:16;1.20;;;1.10;;
52248;SDS011;38541;48.130;8.378;2022-09-30T17:50:46;1.40;;;1.30;;
52248;SDS011;38541;48.130;8.378;2022-09-30T17:53:15;2.83;;;1.75;;
52248;SDS011;38541;48.130;8.378;2022-09-30T17:55:44;1.85;;;1.75;;
52248;SDS011;38541;48.130;8.378;2022-09-30T17:58:15;4.05;;;2.80;;
52248;SDS011;38541;48.130;8.378;2022-09-30T18:00:42;4.72;;;3.13;;
52248;SDS011;38541;48.130;8.378;2022-09-30T18:03:11;7.68;;;5.18;;
52248;SDS011;38541;48.130;8.378;2022-09-30T18:05:38;20.13;;;15.00;;
52248;SDS011;38541;48.130;8.378;2022-09-30T18:08:04;9.65;;;7.20;;
52248;SDS011;38541;48.130;8.378;2022-09-30T18:10:31;4.15;;;3.75;;